This is the latest recevied weather packets stored in our database for station/object K3FAZ. If no packets are shown the sender has not sent any weather packets the latest 1 day(s).
| Time | Temp. | Humidity | Pressure | Rain* | Wind** | Luminosity | Snow |
|---|---|---|---|---|---|---|---|
| 1777988333 | 20° C | 59% | 1011.3 hPa | 0 mm | 2.68 m/s, 224° | 230 W/m² | - |
| 1777988030 | 20° C | 59% | 1011.2 hPa | 0 mm | 2.68 m/s, 204° | 320 W/m² | - |
| 1777987725 | 19.44° C | 59% | 1011.3 hPa | 0 mm | 4.02 m/s, 198° | 257 W/m² | - |
| 1777987423 | 19.44° C | 60% | 1011.3 hPa | 0 mm | 3.58 m/s, 202° | 228 W/m² | - |
| 1777987119 | 19.44° C | 60% | 1011.4 hPa | 0 mm | 3.13 m/s, 204° | 222 W/m² | - |
| 1777986817 | 19.44° C | 60% | 1011.2 hPa | 0 mm | 1.79 m/s, 196° | 258 W/m² | - |
| 1777986515 | 19.44° C | 59% | 1011.3 hPa | 0 mm | 2.24 m/s, 224° | 232 W/m² | - |
| 1777986212 | 19.44° C | 60% | 1011.1 hPa | 0 mm | 2.24 m/s, 192° | 213 W/m² | - |
| 1777985909 | 20° C | 59% | 1011.2 hPa | 0 mm | 2.24 m/s, 209° | 350 W/m² | - |
| 1777985607 | 20° C | 61% | 1011 hPa | 0 mm | 1.79 m/s, 192° | 322 W/m² | - |
| 1777985303 | 19.44° C | 60% | 1011.1 hPa | 0 mm | 1.79 m/s, 205° | 305 W/m² | - |
| 1777985000 | 19.44° C | 62% | 1011.1 hPa | 0 mm | 2.68 m/s, 177° | 293 W/m² | - |
| 1777984696 | 18.89° C | 61% | 1011.2 hPa | 0 mm | 2.68 m/s, 212° | 273 W/m² | - |
| 1777984393 | 18.33° C | 63% | 1011.2 hPa | 0 mm | 2.24 m/s, 172° | 87 W/m² | - |
| 1777984089 | 18.89° C | 63% | 1011.1 hPa | 0 mm | 2.24 m/s, 193° | 85 W/m² | - |
| 1777983787 | 18.89° C | 62% | 1011.3 hPa | 0 mm | 1.79 m/s, 190° | 101 W/m² | - |
| 1777983482 | 18.89° C | 63% | 1011.5 hPa | 0 mm | 2.68 m/s, 196° | 199 W/m² | - |
| 1777983180 | 18.89° C | 62% | 1011.3 hPa | 0 mm | 2.68 m/s, 183° | 169 W/m² | - |
| 1777982876 | 18.33° C | 63% | 1011.2 hPa | 0 mm | 2.24 m/s, 198° | 161 W/m² | - |
| 1777982572 | 18.33° C | 63% | 1011.3 hPa | 0 mm | 2.24 m/s, 198° | 139 W/m² | - |
| 1777982271 | 18.33° C | 63% | 1011.2 hPa | 0 mm | 3.58 m/s, 182° | 124 W/m² | - |
| 1777981969 | 17.78° C | 66% | 1011.4 hPa | 0 mm | 1.34 m/s, 184° | 107 W/m² | - |
| 1777981666 | 17.78° C | 65% | 1011.2 hPa | 0 mm | 1.79 m/s, 195° | 104 W/m² | - |
| 1777981362 | 17.78° C | 65% | 1011.2 hPa | 0 mm | 2.68 m/s, 202° | 82 W/m² | - |
| 1777981059 | 17.78° C | 66% | 1011.3 hPa | 0 mm | 3.13 m/s, 196° | 72 W/m² | - |
* Rain latest hour (hover to see other rain measurements)
** Current wind speed in m/s (hover to see current wind gust speed)